sensor_id;sensor_type;location;lat;lon;timestamp;P1;durP1;ratioP1;P2;durP2;ratioP2
68792;SDS011;55778;54.346;10.210;2023-04-29T00:00:08;15.75;;;6.68;;
68792;SDS011;55778;54.346;10.210;2023-04-29T00:03:05;11.63;;;5.82;;
68792;SDS011;55778;54.346;10.210;2023-04-29T00:05:44;16.17;;;6.78;;
68792;SDS011;55778;54.346;10.210;2023-04-29T00:08:46;11.48;;;5.68;;
68792;SDS011;55778;54.346;10.210;2023-04-29T00:12:03;14.98;;;6.22;;
68792;SDS011;55778;54.346;10.210;2023-04-29T00:14:38;14.45;;;6.38;;
68792;SDS011;55778;54.346;10.210;2023-04-29T00:17:19;13.98;;;6.32;;
68792;SDS011;55778;54.346;10.210;2023-04-29T00:20:00;13.75;;;6.50;;
68792;SDS011;55778;54.346;10.210;2023-04-29T00:22:32;13.75;;;6.03;;
68792;SDS011;55778;54.346;10.210;2023-04-29T00:25:04;11.98;;;6.15;;
68792;SDS011;55778;54.346;10.210;2023-04-29T00:27:48;11.85;;;6.30;;
68792;SDS011;55778;54.346;10.210;2023-04-29T00:30:22;13.50;;;5.95;;
68792;SDS011;55778;54.346;10.210;2023-04-29T00:33:09;13.07;;;5.90;;
68792;SDS011;55778;54.346;10.210;2023-04-29T00:36:06;10.48;;;5.47;;
68792;SDS011;55778;54.346;10.210;2023-04-29T00:38:57;13.77;;;6.13;;
68792;SDS011;55778;54.346;10.210;2023-04-29T00:41:45;13.93;;;5.55;;
68792;SDS011;55778;54.346;10.210;2023-04-29T00:44:23;14.23;;;6.50;;
68792;SDS011;55778;54.346;10.210;2023-04-29T00:47:02;13.07;;;6.25;;
68792;SDS011;55778;54.346;10.210;2023-04-29T00:49:54;14.77;;;6.30;;
68792;SDS011;55778;54.346;10.210;2023-04-29T00:53:01;14.00;;;6.40;;
68792;SDS011;55778;54.346;10.210;2023-04-29T00:56:07;14.82;;;6.57;;
68792;SDS011;55778;54.346;10.210;2023-04-29T00:58:51;15.20;;;7.00;;
68792;SDS011;55778;54.346;10.210;2023-04-29T01:01:36;13.20;;;5.93;;
68792;SDS011;55778;54.346;10.210;2023-04-29T01:04:30;17.90;;;6.65;;
68792;SDS011;55778;54.346;10.210;2023-04-29T01:10:06;17.77;;;7.15;;
68792;SDS011;55778;54.346;10.210;2023-04-29T01:12:53;13.48;;;6.55;;
68792;SDS011;55778;54.346;10.210;2023-04-29T01:18:40;17.35;;;7.60;;
68792;SDS011;55778;54.346;10.210;2023-04-29T01:21:29;13.45;;;6.63;;
68792;SDS011;55778;54.346;10.210;2023-04-29T01:24:18;17.48;;;6.50;;
68792;SDS011;55778;54.346;10.210;2023-04-29T01:30:31;12.57;;;6.20;;
68792;SDS011;55778;54.346;10.210;2023-04-29T01:39:57;12.63;;;5.97;;
68792;SDS011;55778;54.346;10.210;2023-04-29T01:45:17;12.70;;;5.75;;
68792;SDS011;55778;54.346;10.210;2023-04-29T01:48:03;11.32;;;5.30;;
68792;SDS011;55778;54.346;10.210;2023-04-29T01:50:59;12.80;;;5.93;;
68792;SDS011;55778;54.346;10.210;2023-04-29T01:53:48;11.70;;;5.00;;
68792;SDS011;55778;54.346;10.210;2023-04-29T01:56:42;12.45;;;5.57;;
68792;SDS011;55778;54.346;10.210;2023-04-29T01:59:14;11.13;;;4.82;;
68792;SDS011;55778;54.346;10.210;2023-04-29T02:02:17;15.77;;;6.50;;
68792;SDS011;55778;54.346;10.210;2023-04-29T02:05:22;9.98;;;4.93;;
68792;SDS011;55778;54.346;10.210;2023-04-29T02:07:58;9.73;;;5.07;;
68792;SDS011;55778;54.346;10.210;2023-04-29T02:13:36;11.60;;;5.68;;
68792;SDS011;55778;54.346;10.210;2023-04-29T02:16:21;10.32;;;5.30;;
68792;SDS011;55778;54.346;10.210;2023-04-29T02:18:53;13.75;;;5.80;;
68792;SDS011;55778;54.346;10.210;2023-04-29T02:21:30;13.90;;;6.13;;
68792;SDS011;55778;54.346;10.210;2023-04-29T02:24:40;19.25;;;5.50;;
68792;SDS011;55778;54.346;10.210;2023-04-29T02:27:33;17.20;;;5.80;;
68792;SDS011;55778;54.346;10.210;2023-04-29T02:30:10;11.88;;;5.63;;
68792;SDS011;55778;54.346;10.210;2023-04-29T02:33:14;14.10;;;5.55;;
68792;SDS011;55778;54.346;10.210;2023-04-29T02:36:08;18.73;;;6.35;;
68792;SDS011;55778;54.346;10.210;2023-04-29T02:39:23;11.80;;;5.47;;
68792;SDS011;55778;54.346;10.210;2023-04-29T02:42:21;11.70;;;5.43;;
68792;SDS011;55778;54.346;10.210;2023-04-29T02:45:24;11.55;;;5.30;;
68792;SDS011;55778;54.346;10.210;2023-04-29T02:47:55;13.32;;;5.28;;
68792;SDS011;55778;54.346;10.210;2023-04-29T02:50:50;10.30;;;5.10;;
68792;SDS011;55778;54.346;10.210;2023-04-29T02:53:26;11.80;;;5.13;;
68792;SDS011;55778;54.346;10.210;2023-04-29T02:56:00;10.52;;;4.82;;
68792;SDS011;55778;54.346;10.210;2023-04-29T02:58:48;11.32;;;5.18;;
68792;SDS011;55778;54.346;10.210;2023-04-29T03:03:54;12.40;;;5.18;;
68792;SDS011;55778;54.346;10.210;2023-04-29T03:07:19;10.95;;;5.13;;
68792;SDS011;55778;54.346;10.210;2023-04-29T03:10:27;9.98;;;5.07;;
68792;SDS011;55778;54.346;10.210;2023-04-29T03:12:56;12.00;;;5.23;;
68792;SDS011;55778;54.346;10.210;2023-04-29T03:15:51;12.98;;;4.82;;
68792;SDS011;55778;54.346;10.210;2023-04-29T03:19:09;10.38;;;5.13;;
68792;SDS011;55778;54.346;10.210;2023-04-29T03:21:40;16.92;;;5.82;;
68792;SDS011;55778;54.346;10.210;2023-04-29T03:24:34;10.95;;;5.47;;
68792;SDS011;55778;54.346;10.210;2023-04-29T03:27:25;9.98;;;5.40;;
68792;SDS011;55778;54.346;10.210;2023-04-29T03:30:12;14.98;;;5.78;;
68792;SDS011;55778;54.346;10.210;2023-04-29T03:32:57;13.63;;;6.20;;
68792;SDS011;55778;54.346;10.210;2023-04-29T03:35:31;13.38;;;6.65;;
68792;SDS011;55778;54.346;10.210;2023-04-29T03:38:01;15.07;;;6.38;;
68792;SDS011;55778;54.346;10.210;2023-04-29T03:41:08;18.25;;;6.15;;
68792;SDS011;55778;54.346;10.210;2023-04-29T03:44:03;12.98;;;6.25;;
68792;SDS011;55778;54.346;10.210;2023-04-29T03:46:58;16.55;;;7.13;;
68792;SDS011;55778;54.346;10.210;2023-04-29T03:49:31;13.98;;;6.30;;
68792;SDS011;55778;54.346;10.210;2023-04-29T03:52:06;12.05;;;5.68;;
68792;SDS011;55778;54.346;10.210;2023-04-29T03:54:35;15.32;;;6.28;;
68792;SDS011;55778;54.346;10.210;2023-04-29T03:57:14;13.63;;;6.10;;
68792;SDS011;55778;54.346;10.210;2023-04-29T04:00:07;15.43;;;5.68;;
68792;SDS011;55778;54.346;10.210;2023-04-29T04:03:31;13.27;;;5.97;;
68792;SDS011;55778;54.346;10.210;2023-04-29T04:06:17;10.70;;;5.22;;
68792;SDS011;55778;54.346;10.210;2023-04-29T04:08:56;13.80;;;5.90;;
68792;SDS011;55778;54.346;10.210;2023-04-29T04:11:34;10.98;;;5.40;;
68792;SDS011;55778;54.346;10.210;2023-04-29T04:14:25;12.80;;;5.70;;
68792;SDS011;55778;54.346;10.210;2023-04-29T04:17:00;13.00;;;5.47;;
68792;SDS011;55778;54.346;10.210;2023-04-29T04:19:43;14.30;;;6.38;;
68792;SDS011;55778;54.346;10.210;2023-04-29T04:22:34;14.43;;;6.75;;
68792;SDS011;55778;54.346;10.210;2023-04-29T04:25:37;16.58;;;6.43;;
68792;SDS011;55778;54.346;10.210;2023-04-29T04:28:25;13.38;;;5.60;;
68792;SDS011;55778;54.346;10.210;2023-04-29T04:31:13;13.55;;;5.90;;
68792;SDS011;55778;54.346;10.210;2023-04-29T04:33:54;12.63;;;5.80;;
68792;SDS011;55778;54.346;10.210;2023-04-29T04:36:21;13.45;;;5.70;;
68792;SDS011;55778;54.346;10.210;2023-04-29T04:39:11;11.70;;;5.43;;
68792;SDS011;55778;54.346;10.210;2023-04-29T04:42:17;11.43;;;5.70;;
68792;SDS011;55778;54.346;10.210;2023-04-29T04:45:08;11.70;;;5.05;;
68792;SDS011;55778;54.346;10.210;2023-04-29T04:48:09;12.55;;;5.85;;
68792;SDS011;55778;54.346;10.210;2023-04-29T04:50:47;12.23;;;5.03;;
68792;SDS011;55778;54.346;10.210;2023-04-29T04:53:23;10.27;;;4.78;;
68792;SDS011;55778;54.346;10.210;2023-04-29T04:56:17;12.10;;;4.80;;
68792;SDS011;55778;54.346;10.210;2023-04-29T04:58:59;13.30;;;5.10;;
68792;SDS011;55778;54.346;10.210;2023-04-29T05:01:52;11.57;;;5.22;;
68792;SDS011;55778;54.346;10.210;2023-04-29T05:04:24;12.07;;;5.63;;
68792;SDS011;55778;54.346;10.210;2023-04-29T05:09:33;10.20;;;4.38;;
68792;SDS011;55778;54.346;10.210;2023-04-29T05:11:58;10.88;;;4.93;;
68792;SDS011;55778;54.346;10.210;2023-04-29T05:14:24;9.15;;;4.50;;
68792;SDS011;55778;54.346;10.210;2023-04-29T05:16:50;11.80;;;5.05;;
68792;SDS011;55778;54.346;10.210;2023-04-29T05:19:16;11.38;;;5.00;;
68792;SDS011;55778;54.346;10.210;2023-04-29T05:21:42;10.77;;;4.55;;
68792;SDS011;55778;54.346;10.210;2023-04-29T05:24:08;11.27;;;4.80;;
68792;SDS011;55778;54.346;10.210;2023-04-29T05:26:33;11.23;;;4.50;;
68792;SDS011;55778;54.346;10.210;2023-04-29T05:28:58;10.60;;;4.53;;
68792;SDS011;55778;54.346;10.210;2023-04-29T05:31:24;9.65;;;5.28;;
68792;SDS011;55778;54.346;10.210;2023-04-29T05:33:52;12.00;;;5.35;;
68792;SDS011;55778;54.346;10.210;2023-04-29T05:36:17;8.63;;;4.50;;
68792;SDS011;55778;54.346;10.210;2023-04-29T05:38:43;9.27;;;4.72;;
68792;SDS011;55778;54.346;10.210;2023-04-29T05:41:09;9.63;;;4.47;;
68792;SDS011;55778;54.346;10.210;2023-04-29T05:43:35;10.05;;;4.20;;
68792;SDS011;55778;54.346;10.210;2023-04-29T05:46:00;9.45;;;4.65;;
68792;SDS011;55778;54.346;10.210;2023-04-29T05:48:25;9.95;;;4.57;;
68792;SDS011;55778;54.346;10.210;2023-04-29T05:50:51;11.82;;;4.78;;
68792;SDS011;55778;54.346;10.210;2023-04-29T05:53:17;7.45;;;4.38;;
68792;SDS011;55778;54.346;10.210;2023-04-29T05:55:43;9.82;;;4.47;;
68792;SDS011;55778;54.346;10.210;2023-04-29T05:58:10;8.57;;;4.18;;
68792;SDS011;55778;54.346;10.210;2023-04-29T06:00:36;6.97;;;4.15;;
68792;SDS011;55778;54.346;10.210;2023-04-29T06:03:02;9.80;;;4.25;;
68792;SDS011;55778;54.346;10.210;2023-04-29T06:05:27;8.35;;;4.25;;
68792;SDS011;55778;54.346;10.210;2023-04-29T06:07:52;8.43;;;4.53;;
68792;SDS011;55778;54.346;10.210;2023-04-29T06:10:18;8.68;;;4.60;;
68792;SDS011;55778;54.346;10.210;2023-04-29T06:12:43;9.65;;;4.72;;
68792;SDS011;55778;54.346;10.210;2023-04-29T06:15:09;9.35;;;4.75;;
68792;SDS011;55778;54.346;10.210;2023-04-29T06:17:34;8.07;;;4.82;;
68792;SDS011;55778;54.346;10.210;2023-04-29T06:20:00;11.15;;;5.10;;
68792;SDS011;55778;54.346;10.210;2023-04-29T06:22:26;11.23;;;6.00;;
68792;SDS011;55778;54.346;10.210;2023-04-29T06:24:51;11.05;;;5.22;;
68792;SDS011;55778;54.346;10.210;2023-04-29T06:27:16;11.10;;;5.00;;
68792;SDS011;55778;54.346;10.210;2023-04-29T06:29:42;10.73;;;4.70;;
68792;SDS011;55778;54.346;10.210;2023-04-29T06:32:07;14.32;;;6.47;;
68792;SDS011;55778;54.346;10.210;2023-04-29T06:34:33;10.88;;;5.07;;
68792;SDS011;55778;54.346;10.210;2023-04-29T06:36:58;15.07;;;9.50;;
68792;SDS011;55778;54.346;10.210;2023-04-29T06:39:24;19.83;;;11.57;;
68792;SDS011;55778;54.346;10.210;2023-04-29T06:41:49;11.32;;;6.03;;
68792;SDS011;55778;54.346;10.210;2023-04-29T06:44:16;11.65;;;7.20;;
68792;SDS011;55778;54.346;10.210;2023-04-29T06:46:42;10.43;;;5.95;;
68792;SDS011;55778;54.346;10.210;2023-04-29T06:49:07;13.82;;;5.57;;
68792;SDS011;55778;54.346;10.210;2023-04-29T06:51:32;12.32;;;5.45;;
68792;SDS011;55778;54.346;10.210;2023-04-29T06:53:58;11.50;;;5.88;;
68792;SDS011;55778;54.346;10.210;2023-04-29T06:56:23;9.82;;;5.68;;
68792;SDS011;55778;54.346;10.210;2023-04-29T06:58:49;9.90;;;5.40;;
68792;SDS011;55778;54.346;10.210;2023-04-29T07:01:14;11.50;;;6.65;;
68792;SDS011;55778;54.346;10.210;2023-04-29T07:03:40;10.52;;;5.60;;
68792;SDS011;55778;54.346;10.210;2023-04-29T07:06:06;12.20;;;5.88;;
68792;SDS011;55778;54.346;10.210;2023-04-29T07:08:31;11.00;;;5.68;;
68792;SDS011;55778;54.346;10.210;2023-04-29T07:10:57;11.07;;;5.93;;
68792;SDS011;55778;54.346;10.210;2023-04-29T07:13:23;10.80;;;5.45;;
68792;SDS011;55778;54.346;10.210;2023-04-29T07:15:49;15.60;;;6.43;;
68792;SDS011;55778;54.346;10.210;2023-04-29T07:18:15;11.73;;;6.13;;
68792;SDS011;55778;54.346;10.210;2023-04-29T07:20:40;13.30;;;6.35;;
68792;SDS011;55778;54.346;10.210;2023-04-29T07:23:07;12.02;;;6.30;;
68792;SDS011;55778;54.346;10.210;2023-04-29T07:25:32;11.40;;;5.35;;
68792;SDS011;55778;54.346;10.210;2023-04-29T07:27:58;8.43;;;5.22;;
68792;SDS011;55778;54.346;10.210;2023-04-29T07:30:23;11.30;;;5.75;;
68792;SDS011;55778;54.346;10.210;2023-04-29T07:32:49;11.77;;;5.30;;
68792;SDS011;55778;54.346;10.210;2023-04-29T07:35:14;9.02;;;5.13;;
68792;SDS011;55778;54.346;10.210;2023-04-29T07:37:40;9.55;;;5.20;;
68792;SDS011;55778;54.346;10.210;2023-04-29T07:40:07;10.52;;;6.00;;
68792;SDS011;55778;54.346;10.210;2023-04-29T07:42:33;8.30;;;4.88;;
68792;SDS011;55778;54.346;10.210;2023-04-29T07:44:59;8.23;;;5.22;;
68792;SDS011;55778;54.346;10.210;2023-04-29T07:47:24;12.85;;;6.60;;
68792;SDS011;55778;54.346;10.210;2023-04-29T07:49:50;10.05;;;5.93;;
68792;SDS011;55778;54.346;10.210;2023-04-29T07:52:16;9.75;;;5.85;;
68792;SDS011;55778;54.346;10.210;2023-04-29T07:54:42;11.68;;;5.65;;
68792;SDS011;55778;54.346;10.210;2023-04-29T07:57:07;11.52;;;6.43;;
68792;SDS011;55778;54.346;10.210;2023-04-29T07:59:33;11.50;;;5.85;;
68792;SDS011;55778;54.346;10.210;2023-04-29T08:01:58;12.38;;;5.65;;
68792;SDS011;55778;54.346;10.210;2023-04-29T08:04:24;10.68;;;5.68;;
68792;SDS011;55778;54.346;10.210;2023-04-29T08:06:49;10.73;;;5.22;;
68792;SDS011;55778;54.346;10.210;2023-04-29T08:09:15;12.00;;;5.53;;
68792;SDS011;55778;54.346;10.210;2023-04-29T08:11:41;9.73;;;5.97;;
68792;SDS011;55778;54.346;10.210;2023-04-29T08:14:07;12.32;;;6.35;;
68792;SDS011;55778;54.346;10.210;2023-04-29T08:16:33;12.63;;;6.25;;
68792;SDS011;55778;54.346;10.210;2023-04-29T08:18:58;10.63;;;5.38;;
68792;SDS011;55778;54.346;10.210;2023-04-29T08:21:24;10.95;;;5.22;;
68792;SDS011;55778;54.346;10.210;2023-04-29T08:23:49;8.55;;;4.90;;
68792;SDS011;55778;54.346;10.210;2023-04-29T08:26:15;9.25;;;5.30;;
68792;SDS011;55778;54.346;10.210;2023-04-29T08:28:40;10.15;;;5.30;;
68792;SDS011;55778;54.346;10.210;2023-04-29T08:31:06;10.15;;;5.35;;
68792;SDS011;55778;54.346;10.210;2023-04-29T08:33:32;10.95;;;5.38;;
68792;SDS011;55778;54.346;10.210;2023-04-29T08:35:58;10.65;;;5.82;;
68792;SDS011;55778;54.346;10.210;2023-04-29T08:38:25;8.73;;;5.97;;
68792;SDS011;55778;54.346;10.210;2023-04-29T08:40:52;9.18;;;5.13;;
68792;SDS011;55778;54.346;10.210;2023-04-29T08:43:17;10.95;;;5.32;;
68792;SDS011;55778;54.346;10.210;2023-04-29T08:45:44;8.07;;;5.03;;
68792;SDS011;55778;54.346;10.210;2023-04-29T08:48:12;9.38;;;5.47;;
68792;SDS011;55778;54.346;10.210;2023-04-29T08:50:40;10.75;;;5.55;;
68792;SDS011;55778;54.346;10.210;2023-04-29T08:53:06;11.40;;;5.57;;
68792;SDS011;55778;54.346;10.210;2023-04-29T08:55:39;11.45;;;5.28;;
68792;SDS011;55778;54.346;10.210;2023-04-29T08:58:05;9.50;;;5.68;;
68792;SDS011;55778;54.346;10.210;2023-04-29T09:00:31;8.95;;;5.05;;
68792;SDS011;55778;54.346;10.210;2023-04-29T09:02:59;9.27;;;4.55;;
68792;SDS011;55778;54.346;10.210;2023-04-29T09:05:29;7.53;;;4.90;;
68792;SDS011;55778;54.346;10.210;2023-04-29T09:07:57;8.20;;;4.47;;
68792;SDS011;55778;54.346;10.210;2023-04-29T09:10:25;7.70;;;4.63;;
68792;SDS011;55778;54.346;10.210;2023-04-29T09:12:54;7.38;;;4.35;;
68792;SDS011;55778;54.346;10.210;2023-04-29T09:15:21;10.77;;;5.20;;
68792;SDS011;55778;54.346;10.210;2023-04-29T09:17:47;10.38;;;4.65;;
68792;SDS011;55778;54.346;10.210;2023-04-29T09:22:47;8.43;;;4.90;;
68792;SDS011;55778;54.346;10.210;2023-04-29T09:25:19;11.00;;;5.15;;
68792;SDS011;55778;54.346;10.210;2023-04-29T09:27:45;9.18;;;5.60;;
68792;SDS011;55778;54.346;10.210;2023-04-29T09:30:11;9.80;;;5.13;;
68792;SDS011;55778;54.346;10.210;2023-04-29T09:32:37;10.52;;;5.43;;
68792;SDS011;55778;54.346;10.210;2023-04-29T09:37:50;7.63;;;5.07;;
68792;SDS011;55778;54.346;10.210;2023-04-29T09:40:30;9.65;;;5.75;;
68792;SDS011;55778;54.346;10.210;2023-04-29T09:42:57;10.88;;;5.68;;
68792;SDS011;55778;54.346;10.210;2023-04-29T09:45:33;9.43;;;5.43;;
68792;SDS011;55778;54.346;10.210;2023-04-29T09:48:02;9.75;;;5.68;;
68792;SDS011;55778;54.346;10.210;2023-04-29T09:50:29;10.95;;;5.00;;
68792;SDS011;55778;54.346;10.210;2023-04-29T09:52:55;9.18;;;5.70;;
68792;SDS011;55778;54.346;10.210;2023-04-29T09:55:21;11.05;;;5.65;;
68792;SDS011;55778;54.346;10.210;2023-04-29T09:57:47;11.68;;;5.25;;
68792;SDS011;55778;54.346;10.210;2023-04-29T10:00:12;12.50;;;5.55;;
68792;SDS011;55778;54.346;10.210;2023-04-29T10:02:40;10.50;;;5.57;;
68792;SDS011;55778;54.346;10.210;2023-04-29T10:05:07;11.77;;;6.35;;
68792;SDS011;55778;54.346;10.210;2023-04-29T10:07:34;12.40;;;6.88;;
68792;SDS011;55778;54.346;10.210;2023-04-29T10:09:59;12.65;;;5.80;;
68792;SDS011;55778;54.346;10.210;2023-04-29T10:15:01;11.35;;;6.22;;
68792;SDS011;55778;54.346;10.210;2023-04-29T10:17:35;11.85;;;6.10;;
68792;SDS011;55778;54.346;10.210;2023-04-29T10:20:08;11.00;;;5.43;;
68792;SDS011;55778;54.346;10.210;2023-04-29T10:25:12;9.85;;;5.95;;
68792;SDS011;55778;54.346;10.210;2023-04-29T10:27:41;8.55;;;5.53;;
68792;SDS011;55778;54.346;10.210;2023-04-29T10:30:08;9.95;;;5.28;;
68792;SDS011;55778;54.346;10.210;2023-04-29T10:32:39;10.27;;;5.25;;
68792;SDS011;55778;54.346;10.210;2023-04-29T10:35:06;10.30;;;5.72;;
68792;SDS011;55778;54.346;10.210;2023-04-29T10:37:34;10.02;;;5.53;;
68792;SDS011;55778;54.346;10.210;2023-04-29T10:50:34;11.45;;;5.88;;
68792;SDS011;55778;54.346;10.210;2023-04-29T10:53:06;9.82;;;5.70;;
68792;SDS011;55778;54.346;10.210;2023-04-29T10:55:35;10.32;;;5.95;;
68792;SDS011;55778;54.346;10.210;2023-04-29T10:58:02;9.15;;;5.72;;
68792;SDS011;55778;54.346;10.210;2023-04-29T11:00:29;9.57;;;5.68;;
68792;SDS011;55778;54.346;10.210;2023-04-29T11:02:59;9.63;;;5.38;;
68792;SDS011;55778;54.346;10.210;2023-04-29T11:05:33;10.65;;;5.45;;
68792;SDS011;55778;54.346;10.210;2023-04-29T11:08:13;9.57;;;5.45;;
68792;SDS011;55778;54.346;10.210;2023-04-29T11:10:40;8.45;;;4.88;;
68792;SDS011;55778;54.346;10.210;2023-04-29T11:13:23;9.82;;;5.32;;
68792;SDS011;55778;54.346;10.210;2023-04-29T11:15:50;8.32;;;4.75;;
68792;SDS011;55778;54.346;10.210;2023-04-29T11:18:16;9.45;;;4.60;;
68792;SDS011;55778;54.346;10.210;2023-04-29T11:21:10;7.47;;;4.95;;
68792;SDS011;55778;54.346;10.210;2023-04-29T11:23:36;10.18;;;5.28;;
68792;SDS011;55778;54.346;10.210;2023-04-29T11:26:05;8.68;;;4.40;;
68792;SDS011;55778;54.346;10.210;2023-04-29T11:28:31;6.15;;;4.13;;
68792;SDS011;55778;54.346;10.210;2023-04-29T11:30:57;7.75;;;4.20;;
68792;SDS011;55778;54.346;10.210;2023-04-29T11:33:24;6.47;;;4.15;;
68792;SDS011;55778;54.346;10.210;2023-04-29T11:35:51;7.32;;;4.20;;
68792;SDS011;55778;54.346;10.210;2023-04-29T11:38:16;6.45;;;3.83;;
68792;SDS011;55778;54.346;10.210;2023-04-29T11:40:51;7.53;;;3.83;;
68792;SDS011;55778;54.346;10.210;2023-04-29T11:43:17;7.13;;;3.97;;
68792;SDS011;55778;54.346;10.210;2023-04-29T11:45:46;8.73;;;4.32;;
68792;SDS011;55778;54.346;10.210;2023-04-29T11:48:19;7.00;;;3.55;;
68792;SDS011;55778;54.346;10.210;2023-04-29T11:50:56;8.38;;;4.07;;
68792;SDS011;55778;54.346;10.210;2023-04-29T11:53:25;7.93;;;4.00;;
68792;SDS011;55778;54.346;10.210;2023-04-29T11:55:54;6.10;;;4.28;;
68792;SDS011;55778;54.346;10.210;2023-04-29T11:58:23;7.03;;;4.13;;
68792;SDS011;55778;54.346;10.210;2023-04-29T12:00:49;8.17;;;4.80;;
68792;SDS011;55778;54.346;10.210;2023-04-29T12:03:16;8.20;;;4.63;;
68792;SDS011;55778;54.346;10.210;2023-04-29T12:05:52;8.25;;;4.20;;
68792;SDS011;55778;54.346;10.210;2023-04-29T12:08:19;7.88;;;4.22;;
68792;SDS011;55778;54.346;10.210;2023-04-29T12:10:49;7.80;;;4.15;;
68792;SDS011;55778;54.346;10.210;2023-04-29T12:13:16;6.22;;;3.83;;
68792;SDS011;55778;54.346;10.210;2023-04-29T12:15:42;7.65;;;4.00;;
68792;SDS011;55778;54.346;10.210;2023-04-29T12:18:09;6.25;;;3.60;;
68792;SDS011;55778;54.346;10.210;2023-04-29T12:20:35;5.57;;;2.83;;
68792;SDS011;55778;54.346;10.210;2023-04-29T12:23:12;8.07;;;3.35;;
68792;SDS011;55778;54.346;10.210;2023-04-29T12:25:38;4.78;;;2.80;;
68792;SDS011;55778;54.346;10.210;2023-04-29T12:28:16;5.95;;;3.30;;
68792;SDS011;55778;54.346;10.210;2023-04-29T12:30:48;7.18;;;2.58;;
68792;SDS011;55778;54.346;10.210;2023-04-29T12:35:45;5.03;;;2.30;;
68792;SDS011;55778;54.346;10.210;2023-04-29T12:38:14;4.03;;;2.15;;
68792;SDS011;55778;54.346;10.210;2023-04-29T12:40:40;3.55;;;2.10;;
68792;SDS011;55778;54.346;10.210;2023-04-29T12:43:06;3.40;;;2.03;;
68792;SDS011;55778;54.346;10.210;2023-04-29T12:45:32;5.88;;;2.35;;
68792;SDS011;55778;54.346;10.210;2023-04-29T12:47:59;5.35;;;2.40;;
68792;SDS011;55778;54.346;10.210;2023-04-29T12:50:37;5.18;;;2.33;;
68792;SDS011;55778;54.346;10.210;2023-04-29T12:53:03;4.90;;;1.92;;
68792;SDS011;55778;54.346;10.210;2023-04-29T12:55:34;4.50;;;2.05;;
68792;SDS011;55778;54.346;10.210;2023-04-29T12:58:01;3.88;;;2.40;;
68792;SDS011;55778;54.346;10.210;2023-04-29T13:00:30;4.55;;;2.50;;
68792;SDS011;55778;54.346;10.210;2023-04-29T13:02:56;5.70;;;2.35;;
68792;SDS011;55778;54.346;10.210;2023-04-29T13:05:21;3.13;;;2.10;;
68792;SDS011;55778;54.346;10.210;2023-04-29T13:07:47;2.75;;;1.90;;
68792;SDS011;55778;54.346;10.210;2023-04-29T13:10:13;2.15;;;1.58;;
68792;SDS011;55778;54.346;10.210;2023-04-29T13:12:39;2.40;;;1.23;;
68792;SDS011;55778;54.346;10.210;2023-04-29T13:15:05;3.50;;;1.15;;
68792;SDS011;55778;54.346;10.210;2023-04-29T13:17:33;3.15;;;1.00;;
68792;SDS011;55778;54.346;10.210;2023-04-29T13:19:58;2.10;;;1.10;;
68792;SDS011;55778;54.346;10.210;2023-04-29T13:22:24;1.35;;;1.00;;
68792;SDS011;55778;54.346;10.210;2023-04-29T13:24:50;1.30;;;1.10;;
68792;SDS011;55778;54.346;10.210;2023-04-29T13:27:15;1.75;;;0.80;;
68792;SDS011;55778;54.346;10.210;2023-04-29T13:29:40;1.80;;;1.08;;
68792;SDS011;55778;54.346;10.210;2023-04-29T13:32:06;0.70;;;0.70;;
68792;SDS011;55778;54.346;10.210;2023-04-29T13:34:32;1.52;;;1.10;;
68792;SDS011;55778;54.346;10.210;2023-04-29T13:36:58;2.35;;;1.00;;
68792;SDS011;55778;54.346;10.210;2023-04-29T13:39:23;2.17;;;1.27;;
68792;SDS011;55778;54.346;10.210;2023-04-29T13:41:48;1.58;;;1.08;;
68792;SDS011;55778;54.346;10.210;2023-04-29T13:44:14;3.35;;;1.20;;
68792;SDS011;55778;54.346;10.210;2023-04-29T13:46:40;2.15;;;1.20;;
68792;SDS011;55778;54.346;10.210;2023-04-29T13:49:06;5.85;;;1.60;;
68792;SDS011;55778;54.346;10.210;2023-04-29T13:51:31;3.03;;;1.30;;
68792;SDS011;55778;54.346;10.210;2023-04-29T13:53:56;2.28;;;1.20;;
68792;SDS011;55778;54.346;10.210;2023-04-29T13:56:22;2.33;;;1.60;;
68792;SDS011;55778;54.346;10.210;2023-04-29T13:58:49;3.00;;;1.50;;
68792;SDS011;55778;54.346;10.210;2023-04-29T14:01:15;2.90;;;1.45;;
68792;SDS011;55778;54.346;10.210;2023-04-29T14:03:41;3.78;;;1.80;;
68792;SDS011;55778;54.346;10.210;2023-04-29T14:06:08;4.60;;;1.52;;
68792;SDS011;55778;54.346;10.210;2023-04-29T14:08:34;3.25;;;1.63;;
68792;SDS011;55778;54.346;10.210;2023-04-29T14:10:59;3.03;;;1.58;;
68792;SDS011;55778;54.346;10.210;2023-04-29T14:13:25;2.65;;;1.50;;
68792;SDS011;55778;54.346;10.210;2023-04-29T14:15:50;5.07;;;1.67;;
68792;SDS011;55778;54.346;10.210;2023-04-29T14:18:16;2.13;;;1.50;;
68792;SDS011;55778;54.346;10.210;2023-04-29T14:20:41;2.28;;;1.75;;
68792;SDS011;55778;54.346;10.210;2023-04-29T14:23:07;2.70;;;1.88;;
68792;SDS011;55778;54.346;10.210;2023-04-29T14:25:32;3.72;;;2.20;;
68792;SDS011;55778;54.346;10.210;2023-04-29T14:27:58;4.55;;;2.03;;
68792;SDS011;55778;54.346;10.210;2023-04-29T14:30:23;5.43;;;2.63;;
68792;SDS011;55778;54.346;10.210;2023-04-29T14:32:48;4.70;;;2.20;;
68792;SDS011;55778;54.346;10.210;2023-04-29T14:35:14;5.25;;;2.40;;
68792;SDS011;55778;54.346;10.210;2023-04-29T14:37:40;6.32;;;1.73;;
68792;SDS011;55778;54.346;10.210;2023-04-29T14:40:05;3.70;;;1.60;;
68792;SDS011;55778;54.346;10.210;2023-04-29T14:42:31;4.03;;;1.85;;
68792;SDS011;55778;54.346;10.210;2023-04-29T14:44:57;3.22;;;1.65;;
68792;SDS011;55778;54.346;10.210;2023-04-29T14:47:22;4.15;;;1.70;;
68792;SDS011;55778;54.346;10.210;2023-04-29T14:49:48;4.57;;;1.58;;
68792;SDS011;55778;54.346;10.210;2023-04-29T14:52:13;3.28;;;1.65;;
68792;SDS011;55778;54.346;10.210;2023-04-29T14:54:39;2.47;;;1.67;;
68792;SDS011;55778;54.346;10.210;2023-04-29T14:57:04;4.35;;;1.88;;
68792;SDS011;55778;54.346;10.210;2023-04-29T14:59:30;4.22;;;2.03;;
68792;SDS011;55778;54.346;10.210;2023-04-29T15:01:56;5.40;;;1.90;;
68792;SDS011;55778;54.346;10.210;2023-04-29T15:04:21;3.67;;;1.80;;
68792;SDS011;55778;54.346;10.210;2023-04-29T15:06:47;4.35;;;1.92;;
68792;SDS011;55778;54.346;10.210;2023-04-29T15:09:14;5.20;;;1.83;;
68792;SDS011;55778;54.346;10.210;2023-04-29T15:11:40;4.82;;;1.70;;
68792;SDS011;55778;54.346;10.210;2023-04-29T15:14:05;5.68;;;1.60;;
68792;SDS011;55778;54.346;10.210;2023-04-29T15:16:31;4.88;;;1.60;;
68792;SDS011;55778;54.346;10.210;2023-04-29T15:18:56;3.33;;;1.50;;
68792;SDS011;55778;54.346;10.210;2023-04-29T15:21:22;4.82;;;1.50;;
68792;SDS011;55778;54.346;10.210;2023-04-29T15:23:47;2.78;;;1.20;;
68792;SDS011;55778;54.346;10.210;2023-04-29T15:26:13;5.32;;;1.30;;
68792;SDS011;55778;54.346;10.210;2023-04-29T15:28:38;3.83;;;1.15;;
68792;SDS011;55778;54.346;10.210;2023-04-29T15:31:04;3.85;;;1.58;;
68792;SDS011;55778;54.346;10.210;2023-04-29T15:33:30;5.10;;;1.17;;
68792;SDS011;55778;54.346;10.210;2023-04-29T15:35:55;4.20;;;1.50;;
68792;SDS011;55778;54.346;10.210;2023-04-29T15:38:21;3.75;;;1.10;;
68792;SDS011;55778;54.346;10.210;2023-04-29T15:40:47;3.97;;;0.95;;
68792;SDS011;55778;54.346;10.210;2023-04-29T15:43:12;3.00;;;1.05;;
68792;SDS011;55778;54.346;10.210;2023-04-29T15:45:38;3.70;;;1.25;;
68792;SDS011;55778;54.346;10.210;2023-04-29T15:48:03;4.70;;;1.48;;
68792;SDS011;55778;54.346;10.210;2023-04-29T15:50:29;6.07;;;1.23;;